Time;durP1;ratioP1;P1;durP2;ratioP2;P2;SDS_P1;SDS_P2;PMS_P1;PMS_P2;Temp;Humidity;BMP_temperature;BMP_pressure;BME280_temperature;BME280_humidity;BME280_pressure;Samples;Min_cycle;Max_cycle;Signal;HPM_P1;HPM_P2
2024/01/02 00:01:36;;;;;;;4.72;3.13;;;;;;;-144.57;100.00;62443.72;5051637;28;20044;-61
2024/01/02 00:04:02;;;;;;;9.10;4.80;;;;;;;-144.57;100.00;62443.72;5050560;28;20066;-61
2024/01/02 00:06:28;;;;;;;7.70;3.08;;;;;;;-144.57;100.00;62443.72;5052531;28;20126;-61
2024/01/02 00:08:54;;;;;;;11.00;4.40;;;;;;;-144.57;100.00;62443.72;5052089;28;20040;-61
2024/01/02 00:11:20;;;;;;;6.47;3.53;;;;;;;-144.57;100.00;62443.72;5051262;28;20467;-61
2024/01/02 00:13:46;;;;;;;4.35;3.42;;;;;;;-144.57;100.00;62443.72;5051557;28;20457;-63
2024/01/02 00:16:12;;;;;;;6.75;3.72;;;;;;;-144.57;100.00;62443.72;5052052;28;20049;-61
2024/01/02 00:18:38;;;;;;;5.47;3.40;;;;;;;-144.57;100.00;62443.72;5051748;28;20095;-61
2024/01/02 00:21:04;;;;;;;9.40;4.65;;;;;;;-144.57;100.00;62443.72;5050535;28;20061;-61
2024/01/02 00:23:30;;;;;;;7.80;2.92;;;;;;;-144.57;100.00;62443.72;5051145;28;20502;-62
2024/01/02 00:25:56;;;;;;;8.38;4.22;;;;;;;-144.57;100.00;62443.72;5051785;28;20071;-62
2024/01/02 00:28:22;;;;;;;5.10;3.42;;;;;;;-144.57;100.00;62443.72;5050263;28;20044;-63
2024/01/02 00:30:47;;;;;;;6.55;3.78;;;;;;;-144.57;100.00;62443.72;5049776;28;20414;-62
2024/01/02 00:33:14;;;;;;;5.53;3.80;;;;;;;-144.57;100.00;62443.72;5051557;28;20048;-62
2024/01/02 00:35:41;;;;;;;9.38;3.70;;;;;;;-144.57;100.00;62443.72;5033518;28;20056;-61
2024/01/02 00:38:10;;;;;;;10.90;4.80;;;;;;;-144.57;100.00;62443.72;5049849;28;20065;-61
2024/01/02 00:40:36;;;;;;;4.72;2.90;;;;;;;-144.57;100.00;62443.72;5066970;28;20041;-62
2024/01/02 00:43:02;;;;;;;6.82;4.18;;;;;;;-144.57;100.00;62443.72;5049786;28;20110;-62
2024/01/02 00:45:28;;;;;;;9.48;4.40;;;;;;;-144.57;100.00;62443.72;5066888;28;20483;-61
2024/01/02 00:47:54;;;;;;;7.03;3.30;;;;;;;-144.57;100.00;62443.72;5066839;28;20087;-61
2024/01/02 00:50:21;;;;;;;9.18;4.43;;;;;;;-144.57;100.00;62443.72;5051608;28;20048;-61
2024/01/02 00:52:47;;;;;;;6.40;3.28;;;;;;;-144.57;100.00;62443.72;5051108;28;20506;-62
2024/01/02 00:55:13;;;;;;;6.22;4.00;;;;;;;-144.57;100.00;62443.72;5051343;28;20049;-62
2024/01/02 00:57:38;;;;;;;6.28;2.67;;;;;;;-144.57;100.00;62443.72;5051359;28;20044;-64
2024/01/02 01:00:06;;;;;;;5.00;3.30;;;;;;;-144.57;100.00;62443.72;5051160;28;20542;-62
2024/01/02 01:02:32;;;;;;;6.35;3.40;;;;;;;-144.57;100.00;62443.72;5051264;28;20041;-61
2024/01/02 01:04:58;;;;;;;7.53;4.05;;;;;;;-144.57;100.00;62443.72;5049754;28;20486;-60
2024/01/02 01:07:24;;;;;;;6.50;3.35;;;;;;;-144.57;100.00;62443.72;5051242;28;20045;-62
2024/01/02 01:09:51;;;;;;;9.10;3.38;;;;;;;-144.57;100.00;62443.72;5051207;28;20037;-62
2024/01/02 01:12:17;;;;;;;7.25;3.30;;;;;;;-144.57;100.00;62443.72;5054897;28;20041;-63
2024/01/02 01:14:43;;;;;;;6.07;3.60;;;;;;;-144.57;100.00;62443.72;5053677;28;20071;-61
2024/01/02 01:17:09;;;;;;;7.28;3.05;;;;;;;-144.57;100.00;62443.72;5055082;28;20506;-60
2024/01/02 01:19:36;;;;;;;7.93;4.00;;;;;;;-144.57;100.00;62443.72;5036482;28;20044;-62
2024/01/02 01:22:03;;;;;;;10.55;4.85;;;;;;;-144.57;100.00;62443.72;5053461;28;20131;-63
2024/01/02 01:24:29;;;;;;;3.20;2.22;;;;;;;-144.57;100.00;62443.72;5054640;28;20048;-59
2024/01/02 01:26:54;;;;;;;5.88;4.05;;;;;;;-144.57;100.00;62443.72;5053847;28;20037;-64
2024/01/02 01:29:22;;;;;;;5.00;3.30;;;;;;;-144.57;100.00;62443.72;5054092;28;20037;-61
2024/01/02 01:31:48;;;;;;;8.07;4.25;;;;;;;-144.57;100.00;62443.72;5052850;28;20510;-63
2024/01/02 01:34:15;;;;;;;5.13;3.65;;;;;;;-144.57;100.00;62443.72;5054131;28;20048;-61
2024/01/02 01:36:41;;;;;;;8.63;4.47;;;;;;;-144.57;100.00;62443.72;5054625;28;20557;-62
2024/01/02 01:39:07;;;;;;;5.63;4.00;;;;;;;-144.57;100.00;62443.72;5053615;28;20064;-61
2024/01/02 01:41:33;;;;;;;8.60;4.00;;;;;;;-144.57;100.00;62443.72;5053302;28;20135;-62
2024/01/02 01:43:59;;;;;;;2.42;2.17;;;;;;;-144.57;100.00;62443.72;5054651;28;20549;-62
2024/01/02 01:46:36;;;;;;;7.97;3.65;;;;;;;-144.57;100.00;62443.72;5053310;28;20124;-62
2024/01/02 01:49:02;;;;;;;3.47;2.30;;;;;;;-144.57;100.00;62443.72;5053479;28;20049;-61
2024/01/02 01:51:28;;;;;;;8.57;3.65;;;;;;;-144.57;100.00;62443.72;5054533;28;20064;-63
2024/01/02 01:53:55;;;;;;;5.47;3.33;;;;;;;-144.57;100.00;62443.72;5053064;28;20032;-62
2024/01/02 01:56:21;;;;;;;5.57;3.63;;;;;;;-144.57;100.00;62443.72;5053195;28;20140;-61
2024/01/02 01:58:48;;;;;;;4.75;2.97;;;;;;;-144.57;100.00;62443.72;5036771;28;20095;-62
2024/01/02 02:01:14;;;;;;;5.90;3.33;;;;;;;-144.57;100.00;62443.72;5035776;28;20040;-62
2024/01/02 02:03:40;;;;;;;4.88;2.97;;;;;;;-144.57;100.00;62443.72;5052328;28;20041;-62
2024/01/02 02:06:06;;;;;;;6.13;3.85;;;;;;;-144.57;100.00;62443.72;5054166;28;20029;-62
2024/01/02 02:08:32;;;;;;;6.70;3.42;;;;;;;-144.57;100.00;62443.72;5054376;28;20045;-61
2024/01/02 02:10:58;;;;;;;8.27;3.40;;;;;;;-144.57;100.00;62443.72;5052794;28;20434;-62
2024/01/02 02:13:24;;;;;;;5.07;2.50;;;;;;;-144.57;100.00;62443.72;5035954;28;20172;-63
2024/01/02 02:15:50;;;;;;;4.47;2.20;;;;;;;-144.57;100.00;62443.72;5053803;28;20075;-62
2024/01/02 02:18:16;;;;;;;9.10;2.88;;;;;;;-144.57;100.00;62443.72;5069129;28;20045;-62
2024/01/02 02:20:42;;;;;;;3.83;2.08;;;;;;;-144.57;100.00;62443.72;5069345;28;20202;-61
2024/01/02 02:23:08;;;;;;;3.47;2.42;;;;;;;-144.57;100.00;62443.72;5018272;28;20146;-63
2024/01/02 02:25:34;;;;;;;5.40;3.20;;;;;;;-144.57;100.00;62443.72;5052650;28;20037;-62
2024/01/02 02:28:00;;;;;;;5.90;2.50;;;;;;;-144.57;100.00;62443.72;5053882;28;20070;-61
2024/01/02 02:30:26;;;;;;;3.38;3.03;;;;;;;-144.57;100.00;62443.72;5053227;28;20045;-63
2024/01/02 02:32:54;;;;;;;6.32;3.88;;;;;;;-144.57;100.00;62443.72;5053458;28;20438;-62
2024/01/02 02:35:19;;;;;;;4.60;2.17;;;;;;;-144.57;100.00;62443.72;5053573;28;20469;-61
2024/01/02 02:37:45;;;;;;;3.67;2.53;;;;;;;-144.57;100.00;62443.72;5051654;28;20082;-60
2024/01/02 02:40:12;;;;;;;2.47;1.73;;;;;;;-144.57;100.00;62443.72;5053655;28;20045;-61
2024/01/02 02:42:38;;;;;;;3.90;2.63;;;;;;;-144.57;100.00;62443.72;5053547;28;20139;-62
2024/01/02 02:45:04;;;;;;;4.10;2.45;;;;;;;-144.57;100.00;62443.72;5067761;28;20466;-60
2024/01/02 02:47:31;;;;;;;3.95;2.42;;;;;;;-144.57;100.00;62443.72;5053356;28;20040;-61
2024/01/02 02:49:57;;;;;;;6.35;2.78;;;;;;;-144.57;100.00;62443.72;5051787;28;20048;-62
2024/01/02 02:52:23;;;;;;;5.50;2.55;;;;;;;-144.57;100.00;62443.72;5051426;28;20037;-61
2024/01/02 02:54:49;;;;;;;3.15;2.20;;;;;;;-144.57;100.00;62443.72;5068094;28;20048;-62
2024/01/02 02:57:15;;;;;;;3.47;2.10;;;;;;;-144.57;100.00;62443.72;5052111;28;20045;-62
2024/01/02 02:59:41;;;;;;;3.78;2.10;;;;;;;-144.57;100.00;62443.72;5053435;28;20047;-62
2024/01/02 03:02:07;;;;;;;5.03;2.53;;;;;;;-144.57;100.00;62443.72;5053582;28;20064;-61
2024/01/02 03:04:33;;;;;;;2.13;1.92;;;;;;;-144.57;100.00;62443.72;5053416;28;20079;-61
2024/01/02 03:06:59;;;;;;;3.47;2.42;;;;;;;-144.57;100.00;62443.72;5035600;28;20148;-62
2024/01/02 03:09:25;;;;;;;6.75;2.25;;;;;;;-144.57;100.00;62443.72;5052431;28;20060;-61
2024/01/02 03:11:51;;;;;;;6.05;2.97;;;;;;;-144.57;100.00;62443.72;5052756;28;20457;-63
2024/01/02 03:14:16;;;;;;;3.15;2.60;;;;;;;-144.57;100.00;62443.72;5053006;28;20141;-61
2024/01/02 03:16:42;;;;;;;3.17;1.90;;;;;;;-144.57;100.00;62443.72;5053048;28;20123;-62
2024/01/02 03:19:08;;;;;;;5.57;2.00;;;;;;;-144.57;100.00;62443.72;5052891;28;20490;-61
2024/01/02 03:21:34;;;;;;;1.98;1.60;;;;;;;-144.57;100.00;62443.72;5052845;28;20071;-61
2024/01/02 03:24:02;;;;;;;1.92;1.63;;;;;;;-144.57;100.00;62443.72;5053475;28;20056;-60
2024/01/02 03:26:28;;;;;;;2.25;2.15;;;;;;;-144.57;100.00;62443.72;5054895;28;20098;-62
2024/01/02 03:28:54;;;;;;;3.03;1.90;;;;;;;-144.57;100.00;62443.72;5054656;28;20051;-61
2024/01/02 03:31:20;;;;;;;1.65;1.50;;;;;;;-144.57;100.00;62443.72;5053772;28;20119;-62
2024/01/02 03:33:47;;;;;;;5.78;2.58;;;;;;;-144.57;100.00;62443.72;5051968;28;20635;-62
2024/01/02 03:36:22;;;;;;;4.90;2.70;;;;;;;-144.57;100.00;62443.72;5052649;28;20124;-62
2024/01/02 03:38:49;;;;;;;2.33;1.90;;;;;;;-144.57;100.00;62443.72;5052375;28;20056;-62
2024/01/02 03:41:16;;;;;;;1.50;1.40;;;;;;;-144.57;100.00;62443.72;5052762;28;20048;-61
2024/01/02 03:43:42;;;;;;;1.75;1.65;;;;;;;-144.57;100.00;62443.72;5052331;28;20064;-62
2024/01/02 03:46:08;;;;;;;1.95;1.73;;;;;;;-144.57;100.00;62443.72;5050586;28;20041;-61
2024/01/02 03:48:34;;;;;;;1.42;1.27;;;;;;;-144.57;100.00;62443.72;5051987;28;20306;-62
2024/01/02 03:51:01;;;;;;;5.90;2.55;;;;;;;-144.57;100.00;62443.72;5052419;28;20041;-62
2024/01/02 03:53:28;;;;;;;2.53;1.60;;;;;;;-144.57;100.00;62443.72;5050984;28;20076;-62
2024/01/02 03:55:58;;;;;;;2.50;2.17;;;;;;;-144.57;100.00;62443.72;5050388;28;20044;-60
2024/01/02 03:58:24;;;;;;;;;;;;;;;-144.57;100.00;62443.72;5051296;28;20044;-61
2024/01/02 04:00:53;;;;;;;4.22;2.50;;;;;;;-144.57;100.00;62443.72;5052119;28;20073;-62
2024/01/02 04:03:20;;;;;;;6.60;1.98;;;;;;;-144.57;100.00;62443.72;5052658;28;20132;-62
2024/01/02 04:05:46;;;;;;;2.15;1.42;;;;;;;-144.57;100.00;62443.72;5052328;28;20128;-62
2024/01/02 04:08:12;;;;;;;4.05;2.05;;;;;;;-144.57;100.00;62443.72;5051813;28;20126;-66
2024/01/02 04:10:42;;;;;;;1.67;1.60;;;;;;;-144.57;100.00;62443.72;5052031;28;20115;-60
2024/01/02 04:13:09;;;;;;;1.50;1.40;;;;;;;-144.57;100.00;62443.72;5050765;28;20048;-61
2024/01/02 04:15:35;;;;;;;1.13;1.13;;;;;;;-144.57;100.00;62443.72;5051674;28;20065;-61
2024/01/02 04:18:02;;;;;;;3.00;2.10;;;;;;;-144.57;100.00;62443.72;5051571;28;20083;-62
2024/01/02 04:20:28;;;;;;;5.07;2.90;;;;;;;-144.57;100.00;62443.72;5051053;28;20044;-62
2024/01/02 04:22:54;;;;;;;1.92;1.80;;;;;;;-144.57;100.00;62443.72;5051709;28;20079;-61
2024/01/02 04:25:24;;;;;;;1.77;1.67;;;;;;;-144.57;100.00;62443.72;5051535;28;20430;-63
2024/01/02 04:27:53;;;;;;;1.90;1.65;;;;;;;-144.57;100.00;62443.72;5050647;28;20418;-61
2024/01/02 04:30:19;;;;;;;3.35;2.40;;;;;;;-144.57;100.00;62443.72;5051168;28;20098;-61
2024/01/02 04:32:45;;;;;;;0.90;0.90;;;;;;;-144.57;100.00;62443.72;5051047;28;20469;-62
2024/01/02 04:35:11;;;;;;;5.43;1.67;;;;;;;-144.57;100.00;62443.72;5049516;28;20223;-64
2024/01/02 04:37:37;;;;;;;1.70;1.60;;;;;;;-144.57;100.00;62443.72;5050809;28;20094;-63
2024/01/02 04:40:05;;;;;;;1.95;1.75;;;;;;;-144.57;100.00;62443.72;5049681;28;20040;-63
2024/01/02 04:42:35;;;;;;;1.63;1.52;;;;;;;-144.57;100.00;62443.72;5050729;28;20118;-62
2024/01/02 04:45:05;;;;;;;2.75;2.47;;;;;;;-144.57;100.00;62443.72;5050562;28;20078;-62
2024/01/02 04:47:33;;;;;;;2.40;1.80;;;;;;;-144.57;100.00;62443.72;5033598;28;20056;-62
2024/01/02 04:49:59;;;;;;;4.60;2.45;;;;;;;-144.57;100.00;62443.72;5051114;28;20033;-62
2024/01/02 04:52:29;;;;;;;2.15;1.65;;;;;;;-144.57;100.00;62443.72;5051269;28;20123;-63
2024/01/02 04:54:55;;;;;;;2.13;1.48;;;;;;;-144.57;100.00;62443.72;5050395;28;20044;-61
2024/01/02 04:57:21;;;;;;;1.23;1.23;;;;;;;-144.57;100.00;62443.72;5066850;28;20045;-63
2024/01/02 04:59:50;;;;;;;1.25;1.20;;;;;;;-144.57;100.00;62443.72;5051053;28;20429;-62
2024/01/02 05:02:16;;;;;;;2.45;2.25;;;;;;;-144.57;100.00;62443.72;5049688;28;20045;-61
2024/01/02 05:04:41;;;;;;;2.05;1.58;;;;;;;-144.57;100.00;62443.72;5050901;28;20048;-62
2024/01/02 05:07:08;;;;;;;1.85;1.58;;;;;;;-144.57;100.00;62443.72;5051069;28;20089;-63
2024/01/02 05:09:33;;;;;;;1.55;1.45;;;;;;;-144.57;100.00;62443.72;5051213;28;20114;-62
2024/01/02 05:11:59;;;;;;;2.05;1.33;;;;;;;-144.57;100.00;62443.72;5050819;28;20498;-63
2024/01/02 05:14:27;;;;;;;2.00;1.77;;;;;;;-144.57;100.00;62443.72;5050349;28;20049;-62
2024/01/02 05:16:53;;;;;;;1.35;1.30;;;;;;;-144.57;100.00;62443.72;5050654;28;20045;-62
2024/01/02 05:19:19;;;;;;;1.85;1.75;;;;;;;-144.57;100.00;62443.72;5050456;28;20075;-62
2024/01/02 05:21:45;;;;;;;2.33;1.33;;;;;;;-144.57;100.00;62443.72;5049865;28;20056;-62
2024/01/02 05:24:10;;;;;;;1.77;1.67;;;;;;;-144.57;100.00;62443.72;5050551;28;20041;-61
2024/01/02 05:26:36;;;;;;;2.05;1.73;;;;;;;-144.57;100.00;62443.72;5050959;28;20063;-60
2024/01/02 05:29:02;;;;;;;2.25;2.05;;;;;;;-144.57;100.00;62443.72;5049891;28;20048;-61
2024/01/02 05:31:28;;;;;;;3.47;1.80;;;;;;;-144.57;100.00;62443.72;5050860;28;20055;-62
2024/01/02 05:33:53;;;;;;;1.95;1.85;;;;;;;-144.57;100.00;62443.72;5050670;28;20043;-63
2024/01/02 05:36:19;;;;;;;1.33;1.25;;;;;;;-144.57;100.00;62443.72;5051035;28;20124;-60
2024/01/02 05:38:45;;;;;;;6.80;2.78;;;;;;;-144.57;100.00;62443.72;5049423;28;20422;-60
2024/01/02 05:41:11;;;;;;;1.67;1.52;;;;;;;-144.57;100.00;62443.72;5050604;28;20496;-62
2024/01/02 05:43:36;;;;;;;2.72;1.75;;;;;;;-144.57;100.00;62443.72;5050061;28;20061;-60
2024/01/02 05:46:03;;;;;;;3.55;2.05;;;;;;;-144.57;100.00;62443.72;5050818;28;20569;-61
2024/01/02 05:48:30;;;;;;;2.03;1.92;;;;;;;-144.57;100.00;62443.72;5050316;28;20070;-61
2024/01/02 05:50:57;;;;;;;2.38;1.65;;;;;;;-144.57;100.00;62443.72;5049063;28;20041;-62
2024/01/02 05:53:23;;;;;;;2.10;1.90;;;;;;;-144.57;100.00;62443.72;5048567;28;20067;-60
2024/01/02 05:55:49;;;;;;;1.88;1.42;;;;;;;-144.57;100.00;62443.72;5032925;28;20044;-61
2024/01/02 05:58:15;;;;;;;2.20;1.45;;;;;;;-144.57;100.00;62443.72;5053610;28;20041;-63
2024/01/02 06:00:41;;;;;;;1.33;1.23;;;;;;;-144.57;100.00;62443.72;5052314;28;20148;-62
2024/01/02 06:03:07;;;;;;;1.50;1.25;;;;;;;-144.57;100.00;62443.72;5030886;28;20124;-62
2024/01/02 06:05:33;;;;;;;1.40;1.38;;;;;;;-144.57;100.00;62443.72;5049517;28;20105;-61
2024/01/02 06:07:59;;;;;;;1.27;1.17;;;;;;;-144.57;100.00;62443.72;5048825;28;20041;-62
2024/01/02 06:10:24;;;;;;;1.98;1.80;;;;;;;-144.57;100.00;62443.72;5053323;28;20068;-60
2024/01/02 06:12:50;;;;;;;3.60;2.50;;;;;;;-144.57;100.00;62443.72;5053741;28;20052;-62
2024/01/02 06:15:16;;;;;;;1.70;1.48;;;;;;;-144.57;100.00;62443.72;5068630;28;20530;-62
2024/01/02 06:17:42;;;;;;;1.88;1.77;;;;;;;-144.57;100.00;62443.72;5050466;28;20045;-60
2024/01/02 06:20:10;;;;;;;1.63;1.60;;;;;;;-144.57;100.00;62443.72;5048741;28;20509;-60
2024/01/02 06:22:37;;;;;;;6.38;2.33;;;;;;;-144.57;100.00;62443.72;5033339;28;20573;-60
2024/01/02 06:25:08;;;;;;;2.35;2.08;;;;;;;-144.57;100.00;62443.72;5060598;28;20094;-59
2024/01/02 06:27:35;;;;;;;3.80;2.17;;;;;;;-144.57;100.00;62443.72;5049970;28;20576;-61
2024/01/02 06:30:05;;;;;;;1.60;1.50;;;;;;;-144.57;100.00;62443.72;5052817;28;20376;-60
2024/01/02 06:32:33;;;;;;;2.45;1.50;;;;;;;-144.57;100.00;62443.72;5051233;28;20057;-60
2024/01/02 06:35:00;;;;;;;1.60;1.50;;;;;;;-144.57;100.00;62443.72;5052768;28;20390;-58
2024/01/02 06:37:27;;;;;;;2.25;1.75;;;;;;;-144.57;100.00;62443.72;5052390;28;20045;-61
2024/01/02 06:39:53;;;;;;;1.42;1.38;;;;;;;-144.57;100.00;62443.72;5052844;28;20049;-58
2024/01/02 06:42:19;;;;;;;2.33;1.42;;;;;;;-144.57;100.00;62443.72;5052215;28;20065;-60
2024/01/02 06:44:45;;;;;;;1.63;1.17;;;;;;;-144.57;100.00;62443.72;5052861;28;20040;-60
2024/01/02 06:47:11;;;;;;;3.10;1.42;;;;;;;-144.57;100.00;62443.72;5051786;28;20047;-61
2024/01/02 06:49:37;;;;;;;5.53;3.50;;;;;;;-144.57;100.00;62443.72;5052753;28;20045;-58
2024/01/02 06:52:03;;;;;;;1.52;1.40;;;;;;;-144.57;100.00;62443.72;5052303;28;20410;-61
2024/01/02 06:54:29;;;;;;;1.48;1.38;;;;;;;-144.57;100.00;62443.72;5052338;28;20041;-60
2024/01/02 06:56:56;;;;;;;2.75;1.73;;;;;;;-144.57;100.00;62443.72;5052378;28;20045;-60
2024/01/02 06:59:22;;;;;;;2.00;1.88;;;;;;;-144.57;100.00;62443.72;5051285;28;20143;-60
2024/01/02 07:01:48;;;;;;;3.90;1.90;;;;;;;-144.57;100.00;62443.72;5051657;28;20134;-61
2024/01/02 07:04:14;;;;;;;2.83;1.92;;;;;;;-144.57;100.00;62443.72;5067595;28;20041;-60
2024/01/02 07:06:39;;;;;;;5.55;1.13;;;;;;;-144.57;100.00;62443.72;5052096;28;20453;-60
2024/01/02 07:09:05;;;;;;;3.95;1.73;;;;;;;-144.57;100.00;62443.72;5050723;28;20128;-59
2024/01/02 07:11:31;;;;;;;1.13;1.13;;;;;;;-144.57;100.00;62443.72;5052217;28;20131;-61
2024/01/02 07:13:57;;;;;;;3.47;1.65;;;;;;;-144.57;100.00;62443.72;5051873;28;20087;-60
2024/01/02 07:16:24;;;;;;;1.45;1.40;;;;;;;-144.57;100.00;62443.72;5050669;28;20441;-59
2024/01/02 07:18:50;;;;;;;5.90;1.90;;;;;;;-144.57;100.00;62443.72;5053745;28;20044;-60
2024/01/02 07:21:16;;;;;;;8.13;2.50;;;;;;;-144.57;100.00;62443.72;5053120;28;20143;-60
2024/01/02 07:23:42;;;;;;;1.60;1.50;;;;;;;-144.57;100.00;62443.72;5052280;28;20120;-60
2024/01/02 07:26:08;;;;;;;3.70;3.38;;;;;;;-144.57;100.00;62443.72;5071192;28;20044;-58
2024/01/02 07:28:36;;;;;;;3.35;2.75;;;;;;;-144.57;100.00;62443.72;5068626;28;20088;-57
2024/01/02 07:31:02;;;;;;;2.25;1.63;;;;;;;-144.57;100.00;62443.72;5050374;28;20110;-57
2024/01/02 07:33:28;;;;;;;3.00;2.38;;;;;;;-144.57;100.00;62443.72;5050972;28;20041;-58
2024/01/02 07:35:54;;;;;;;2.55;2.17;;;;;;;-144.57;100.00;62443.72;5062742;28;20076;-57
2024/01/02 07:38:20;;;;;;;1.42;1.33;;;;;;;-144.57;100.00;62443.72;5051250;28;20045;-56
2024/01/02 07:40:46;;;;;;;6.45;2.65;;;;;;;-144.57;100.00;62443.72;5064406;28;20086;-59
2024/01/02 07:43:12;;;;;;;3.38;2.03;;;;;;;-144.57;100.00;62443.72;5070323;28;20460;-58
2024/01/02 07:45:38;;;;;;;1.90;1.80;;;;;;;-144.57;100.00;62443.72;5061224;28;20063;-58
2024/01/02 07:48:04;;;;;;;2.47;1.83;;;;;;;-144.57;100.00;62443.72;5066635;28;20070;-57
2024/01/02 07:50:29;;;;;;;2.13;1.42;;;;;;;-144.57;100.00;62443.72;5056628;28;20037;-57
2024/01/02 07:52:55;;;;;;;2.38;1.77;;;;;;;-144.57;100.00;62443.72;5053927;28;20048;-56
2024/01/02 07:55:21;;;;;;;2.60;1.70;;;;;;;-144.57;100.00;62443.72;5072238;28;20048;-58
2024/01/02 07:57:47;;;;;;;5.05;2.00;;;;;;;-144.57;100.00;62443.72;5070959;28;20037;-58
2024/01/02 08:00:14;;;;;;;2.25;1.85;;;;;;;-144.57;100.00;62443.72;5061641;28;20123;-60
2024/01/02 08:02:40;;;;;;;2.15;1.48;;;;;;;-144.57;100.00;62443.72;5050200;28;20593;-58
2024/01/02 08:05:06;;;;;;;2.50;2.00;;;;;;;-144.57;100.00;62443.72;5050983;28;20123;-58
2024/01/02 08:07:32;;;;;;;2.50;1.75;;;;;;;-144.57;100.00;62443.72;5050061;28;20094;-61
2024/01/02 08:09:57;;;;;;;2.00;1.90;;;;;;;-144.57;100.00;62443.72;5051554;28;20036;-61
2024/01/02 08:12:23;;;;;;;2.53;1.67;;;;;;;-144.57;100.00;62443.72;5051286;28;20414;-59
2024/01/02 08:14:49;;;;;;;2.20;1.88;;;;;;;-144.57;100.00;62443.72;5048952;28;20732;-62
2024/01/02 08:17:20;;;;;;;2.70;1.67;;;;;;;-144.57;100.00;62443.72;5050433;28;20068;-61
2024/01/02 08:19:46;;;;;;;1.52;1.38;;;;;;;-144.57;100.00;62443.72;5049309;28;20132;-62
2024/01/02 08:22:12;;;;;;;7.53;4.10;;;;;;;-144.57;100.00;62443.72;5066637;28;20485;-62
2024/01/02 08:24:38;;;;;;;1.90;1.70;;;;;;;-144.57;100.00;62443.72;5033238;28;20037;-58
2024/01/02 08:27:04;;;;;;;1.30;1.30;;;;;;;-144.57;100.00;62443.72;5049912;28;20072;-60
2024/01/02 08:29:30;;;;;;;1.42;1.33;;;;;;;-144.57;100.00;62443.72;5033314;28;20045;-59
2024/01/02 08:31:56;;;;;;;1.58;1.08;;;;;;;-144.57;100.00;62443.72;5050703;28;20473;-59
2024/01/02 08:34:21;;;;;;;0.90;0.90;;;;;;;-144.57;100.00;62443.72;5051179;28;20041;-60
2024/01/02 08:36:47;;;;;;;1.90;1.80;;;;;;;-144.57;100.00;62443.72;5051018;28;20049;-58
2024/01/02 08:39:14;;;;;;;1.83;1.65;;;;;;;-144.57;100.00;62443.72;5051371;28;20048;-60
2024/01/02 08:41:40;;;;;;;2.08;1.60;;;;;;;-144.57;100.00;62443.72;5051185;28;20040;-60
2024/01/02 08:44:07;;;;;;;2.58;1.67;;;;;;;-144.57;100.00;62443.72;5048027;28;20055;-59
2024/01/02 08:46:33;;;;;;;7.38;2.90;;;;;;;-144.57;100.00;62443.72;5050846;28;20056;-61
2024/01/02 08:48:59;;;;;;;2.42;2.03;;;;;;;-144.57;100.00;62443.72;5051169;28;20041;-61
2024/01/02 08:51:24;;;;;;;2.38;1.98;;;;;;;-144.57;100.00;62443.72;5050529;28;20049;-63
2024/01/02 08:53:50;;;;;;;13.30;2.55;;;;;;;-144.57;100.00;62443.72;5049243;28;20477;-62
2024/01/02 08:56:16;;;;;;;2.85;1.75;;;;;;;-144.57;100.00;62443.72;5049046;28;20483;-57
2024/01/02 08:58:42;;;;;;;5.20;1.75;;;;;;;-144.57;100.00;62443.72;5049284;28;20049;-55
2024/01/02 09:01:12;;;;;;;2.13;1.85;;;;;;;-144.57;100.00;62443.72;5048454;28;20190;-59
2024/01/02 09:03:38;;;;;;;0.90;0.90;;;;;;;-144.57;100.00;62443.72;5048226;28;20128;-60
2024/01/02 09:06:04;;;;;;;1.88;1.23;;;;;;;-144.57;100.00;62443.72;5052392;28;20514;-60
2024/01/02 09:08:30;;;;;;;3.67;2.53;;;;;;;-144.57;100.00;62443.72;5050808;28;20510;-60
2024/01/02 09:10:56;;;;;;;3.40;2.45;;;;;;;-144.57;100.00;62443.72;5049650;28;20079;-60
2024/01/02 09:13:22;;;;;;;4.63;2.53;;;;;;;-144.57;100.00;62443.72;5050769;28;20047;-59
2024/01/02 09:15:47;;;;;;;4.25;2.33;;;;;;;-144.57;100.00;62443.72;5050502;28;20163;-59
2024/01/02 09:18:13;;;;;;;1.95;1.85;;;;;;;-144.57;100.00;62443.72;5049896;28;20094;-58
2024/01/02 09:20:39;;;;;;;2.35;1.90;;;;;;;-144.57;100.00;62443.72;5050707;28;20132;-59
2024/01/02 09:23:05;;;;;;;3.22;1.65;;;;;;;-144.57;100.00;62443.72;5050682;28;20136;-60
2024/01/02 09:25:33;;;;;;;5.63;2.40;;;;;;;-144.57;100.00;62443.72;5050885;28;20041;-58
2024/01/02 09:27:59;;;;;;;2.40;1.65;;;;;;;-144.57;100.00;62443.72;5049344;28;20127;-59
2024/01/02 09:30:25;;;;;;;3.13;2.33;;;;;;;-144.57;100.00;62443.72;5048804;28;20052;-60
2024/01/02 09:32:52;;;;;;;3.03;1.92;;;;;;;-144.57;100.00;62443.72;5054241;28;20041;-59
2024/01/02 09:35:18;;;;;;;6.00;2.33;;;;;;;-144.57;100.00;62443.72;5055193;28;20490;-57
2024/01/02 09:37:44;;;;;;;2.17;1.98;;;;;;;-144.57;100.00;62443.72;5054254;28;20045;-61
2024/01/02 09:40:30;;;;;;;1.65;1.45;;;;;;;-144.57;100.00;62443.72;5054477;28;20038;-61
2024/01/02 09:43:07;;;;;;;2.50;2.30;;;;;;;-144.57;100.00;62443.72;5037270;28;20147;-60
2024/01/02 09:45:43;;;;;;;2.05;1.60;;;;;;;-144.57;100.00;62443.72;5053934;28;20041;-60
2024/01/02 09:48:29;;;;;;;3.25;2.03;;;;;;;-144.57;100.00;62443.72;5053041;28;20131;-60
2024/01/02 09:51:07;;;;;;;1.23;1.20;;;;;;;-144.57;100.00;62443.72;5054054;28;20045;-61
2024/01/02 09:53:33;;;;;;;2.13;1.90;;;;;;;-144.57;100.00;62443.72;5054150;28;20049;-58
2024/01/02 09:56:31;;;;;;;1.55;1.55;;;;;;;-144.57;100.00;62443.72;5052517;28;20520;-61
2024/01/02 09:59:38;;;;;;;3.97;1.83;;;;;;;-144.57;100.00;62443.72;5000066;28;20491;-60
2024/01/02 10:02:25;;;;;;;2.22;2.10;;;;;;;-144.57;100.00;62443.72;5034085;28;20049;-59
2024/01/02 10:04:55;;;;;;;1.65;1.55;;;;;;;-144.57;100.00;62443.72;5053741;28;20057;-59
2024/01/02 10:07:36;;;;;;;2.80;2.25;;;;;;;-144.57;100.00;62443.72;5052839;28;20479;-59
2024/01/02 10:10:19;;;;;;;1.70;1.60;;;;;;;-144.57;100.00;62443.72;5053998;28;20074;-60
2024/01/02 10:13:12;;;;;;;4.13;2.67;;;;;;;-144.57;100.00;62443.72;5052868;28;20414;-59
2024/01/02 10:15:54;;;;;;;2.53;1.52;;;;;;;-144.57;100.00;62443.72;5052987;28;20053;-61
2024/01/02 10:18:35;;;;;;;3.17;2.08;;;;;;;-144.57;100.00;62443.72;5053412;28;20041;-59
2024/01/02 10:21:20;;;;;;;2.47;1.58;;;;;;;-144.57;100.00;62443.72;5035902;28;20048;-59
2024/01/02 10:23:58;;;;;;;2.28;2.05;;;;;;;-144.57;100.00;62443.72;5035472;28;20082;-63
2024/01/02 10:26:27;;;;;;;3.10;1.88;;;;;;;-144.57;100.00;62443.72;5054315;28;20037;-61
2024/01/02 10:28:57;;;;;;;2.97;2.33;;;;;;;-144.57;100.00;62443.72;5061391;28;20140;-57
2024/01/02 10:31:52;;;;;;;1.92;1.50;;;;;;;-144.57;100.00;62443.72;5069199;28;20681;-59
2024/01/02 10:34:22;;;;;;;2.42;1.88;;;;;;;-144.57;100.00;62443.72;5028947;28;20148;-60
2024/01/02 10:36:56;;;;;;;3.75;2.42;;;;;;;-144.57;100.00;62443.72;5052913;28;20463;-60
2024/01/02 10:39:26;;;;;;;3.08;1.58;;;;;;;-144.57;100.00;62443.72;5050806;28;20044;-60
2024/01/02 10:42:15;;;;;;;2.17;1.88;;;;;;;-144.57;100.00;62443.72;5052758;28;20080;-59
2024/01/02 10:45:22;;;;;;;1.42;1.33;;;;;;;-144.57;100.00;62443.72;5051231;28;20064;-58
2024/01/02 10:48:06;;;;;;;2.10;1.60;;;;;;;-144.57;100.00;62443.72;5051672;28;20090;-59
2024/01/02 10:50:45;;;;;;;1.55;1.45;;;;;;;-144.57;100.00;62443.72;5053613;28;20498;-60
2024/01/02 10:53:23;;;;;;;2.75;2.50;;;;;;;-144.57;100.00;62443.72;5051888;28;20080;-61
2024/01/02 10:55:51;;;;;;;3.85;2.70;;;;;;;-144.57;100.00;62443.72;5053690;28;20049;-61
2024/01/02 10:58:23;;;;;;;1.77;1.67;;;;;;;-144.57;100.00;62443.72;5052136;28;20045;-61
2024/01/02 11:01:12;;;;;;;3.47;2.35;;;;;;;-144.57;100.00;62443.72;5051337;28;20124;-59
2024/01/02 11:03:52;;;;;;;4.00;2.25;;;;;;;-144.57;100.00;62443.72;5035494;28;20037;-59
2024/01/02 11:06:25;;;;;;;2.97;1.77;;;;;;;-144.57;100.00;62443.72;5053484;28;20036;-61
2024/01/02 11:09:04;;;;;;;2.55;2.13;;;;;;;-144.57;100.00;62443.72;5053064;28;21181;-59
2024/01/02 11:11:30;;;;;;;2.75;1.75;;;;;;;-144.57;100.00;62443.72;5051688;28;20149;-59
2024/01/02 11:13:58;;;;;;;3.03;2.20;;;;;;;-144.57;100.00;62443.72;5054172;28;20110;-61